createdAt,value
2022-11-18T00:01:45.622Z,5.97
2022-11-18T00:05:10.061Z,10.77
2022-11-18T00:08:33.091Z,6.05
2022-11-18T00:12:13.559Z,8.57
2022-11-18T00:15:36.555Z,6.43
2022-11-18T00:18:59.532Z,8.07
2022-11-18T00:22:29.574Z,5.22
2022-11-18T00:25:52.961Z,9.23
2022-11-18T00:29:17.082Z,15.15
2022-11-18T00:32:40.185Z,11.88
2022-11-18T00:36:03.213Z,7.22
2022-11-18T00:39:27.573Z,7.13
2022-11-18T00:42:53.741Z,4.80
2022-11-18T00:46:17.030Z,6.97
2022-11-18T00:49:39.929Z,8.00
2022-11-18T00:53:02.854Z,4.03
2022-11-18T00:56:27.131Z,6.75
2022-11-18T00:59:50.043Z,4.60
2022-11-18T01:03:13.533Z,4.68
2022-11-18T01:06:36.488Z,4.70
2022-11-18T01:09:59.418Z,8.30
2022-11-18T01:13:23.827Z,7.50
2022-11-18T01:16:50.995Z,4.80
2022-11-18T01:20:14.242Z,5.50
2022-11-18T01:23:37.165Z,10.02
2022-11-18T01:27:01.311Z,5.65
2022-11-18T01:30:25.578Z,11.05
2022-11-18T01:33:48.578Z,7.30
2022-11-18T01:37:11.484Z,7.07
2022-11-18T01:40:35.508Z,6.18
2022-11-18T01:44:00.858Z,3.92
2022-11-18T01:47:26.463Z,6.03
2022-11-18T01:50:54.173Z,3.40
2022-11-18T01:54:21.182Z,3.67
2022-11-18T01:57:45.893Z,6.57
2022-11-18T02:01:09.269Z,4.13
2022-11-18T02:04:35.353Z,4.75
2022-11-18T02:07:59.411Z,4.75
2022-11-18T02:11:39.829Z,6.57
2022-11-18T02:15:03.492Z,3.42
2022-11-18T02:18:33.480Z,7.75
2022-11-18T02:22:07.031Z,6.57
2022-11-18T02:25:37.617Z,5.22
2022-11-18T02:29:08.426Z,6.50
2022-11-18T02:32:35.030Z,11.65
2022-11-18T02:36:04.006Z,2.95
2022-11-18T02:39:32.846Z,5.97
2022-11-18T02:43:00.282Z,10.13
2022-11-18T02:46:29.829Z,7.25
2022-11-18T02:49:57.648Z,8.43
2022-11-18T02:53:22.273Z,2.65
2022-11-18T02:56:47.447Z,2.15
2022-11-18T03:00:11.648Z,2.22
2022-11-18T03:03:37.609Z,2.20
2022-11-18T03:07:10.861Z,6.68
2022-11-18T03:10:41.355Z,6.20
2022-11-18T03:14:10.609Z,5.13
2022-11-18T03:17:45.683Z,4.15
2022-11-18T03:21:17.111Z,4.03
2022-11-18T03:24:44.073Z,3.70
2022-11-18T03:28:12.944Z,4.57
2022-11-18T03:31:40.570Z,4.43
2022-11-18T03:35:08.084Z,6.18
2022-11-18T03:38:37.513Z,6.03
2022-11-18T03:42:07.370Z,4.70
2022-11-18T03:45:36.043Z,5.05
2022-11-18T03:49:00.471Z,7.10
2022-11-18T03:52:28.532Z,5.30
2022-11-18T03:55:58.874Z,7.00
2022-11-18T03:59:25.831Z,5.97
2022-11-18T04:02:51.174Z,5.85
2022-11-18T04:06:22.194Z,3.72
2022-11-18T04:09:50.282Z,3.72
2022-11-18T04:13:20.649Z,4.53
2022-11-18T04:16:44.917Z,4.80
2022-11-18T04:20:08.561Z,4.43
2022-11-18T04:23:31.459Z,2.10
2022-11-18T04:26:54.523Z,4.43
2022-11-18T04:30:19.675Z,11.32
2022-11-18T04:33:42.652Z,6.03
2022-11-18T04:37:05.585Z,5.22
2022-11-18T04:40:28.551Z,5.90
2022-11-18T04:43:51.475Z,4.88
2022-11-18T04:47:15.769Z,6.88
2022-11-18T04:50:38.729Z,3.13
2022-11-18T04:54:01.674Z,3.00
2022-11-18T04:57:24.695Z,4.55
2022-11-18T05:00:47.639Z,4.10
2022-11-18T05:04:15.396Z,3.20
2022-11-18T05:07:38.391Z,4.95
2022-11-18T05:11:15.339Z,5.10
2022-11-18T05:14:38.441Z,8.18
2022-11-18T05:18:01.373Z,7.07
2022-11-18T05:21:25.700Z,2.00
2022-11-18T05:24:48.925Z,4.65
2022-11-18T05:28:11.845Z,6.18
2022-11-18T05:31:34.775Z,5.20
2022-11-18T05:34:57.730Z,4.97
2022-11-18T05:38:22.060Z,4.40
2022-11-18T05:42:02.333Z,6.18
2022-11-18T05:45:25.246Z,8.52
2022-11-18T05:48:48.326Z,14.23
2022-11-18T05:52:11.306Z,7.72
2022-11-18T05:55:40.742Z,9.40
2022-11-18T05:59:03.825Z,8.10
2022-11-18T06:02:30.311Z,14.55
2022-11-18T06:05:55.175Z,8.48
2022-11-18T06:09:20.916Z,8.60
2022-11-18T06:12:48.928Z,11.68
2022-11-18T06:16:14.018Z,16.45
2022-11-18T06:19:37.100Z,9.85
2022-11-18T06:23:01.749Z,7.43
2022-11-18T06:26:24.746Z,10.20
2022-11-18T06:29:49.017Z,11.52
2022-11-18T06:33:11.938Z,8.40
2022-11-18T06:36:34.880Z,10.23
2022-11-18T06:39:57.831Z,14.98
2022-11-18T06:43:38.253Z,8.65
2022-11-18T06:47:03.617Z,16.63
2022-11-18T06:50:26.625Z,17.25
2022-11-18T06:53:49.565Z,10.43
2022-11-18T06:57:12.493Z,16.48
2022-11-18T07:00:35.503Z,18.25
2022-11-18T07:04:01.066Z,22.17
2022-11-18T07:07:24.119Z,12.57
2022-11-18T07:10:53.608Z,8.52
2022-11-18T07:14:16.602Z,13.23
2022-11-18T07:17:39.554Z,6.30
2022-11-18T07:21:05.162Z,6.32
2022-11-18T07:24:28.137Z,16.02
2022-11-18T07:27:51.113Z,4.50
2022-11-18T07:31:16.359Z,7.88
2022-11-18T07:34:39.328Z,4.50
2022-11-18T07:38:03.941Z,12.65
2022-11-18T07:41:28.947Z,8.95
2022-11-18T07:44:51.860Z,16.08
2022-11-18T07:48:14.795Z,14.20
2022-11-18T07:51:40.338Z,10.48
2022-11-18T07:55:05.063Z,17.05
2022-11-18T07:58:28.234Z,7.63
2022-11-18T08:01:51.212Z,10.77
2022-11-18T08:05:17.882Z,14.80
2022-11-18T08:08:41.522Z,8.52
2022-11-18T08:12:06.557Z,13.63
2022-11-18T08:15:29.789Z,8.25
2022-11-18T08:18:53.320Z,11.75
2022-11-18T08:22:16.894Z,5.05
2022-11-18T08:25:39.831Z,8.60
2022-11-18T08:29:04.178Z,6.68
2022-11-18T08:32:27.152Z,9.43
2022-11-18T08:35:50.087Z,8.43
2022-11-18T08:39:13.208Z,4.60
2022-11-18T08:42:37.744Z,9.88
2022-11-18T08:46:02.040Z,5.55
2022-11-18T08:49:29.590Z,9.93
2022-11-18T08:52:55.219Z,11.68
2022-11-18T08:56:21.014Z,7.15
2022-11-18T08:59:43.929Z,16.38
2022-11-18T09:03:08.229Z,7.13
2022-11-18T09:06:31.396Z,13.90
2022-11-18T09:09:54.422Z,7.47
2022-11-18T09:17:00.243Z,6.03
2022-11-18T09:20:24.962Z,11.98
2022-11-18T09:23:48.271Z,4.22
2022-11-18T09:27:16.723Z,5.60
2022-11-18T09:30:40.563Z,5.13
2022-11-18T09:34:03.500Z,8.40
2022-11-18T09:37:27.818Z,6.45
2022-11-18T09:41:03.261Z,5.53
2022-11-18T09:44:48.809Z,7.40
2022-11-18T09:48:17.697Z,4.78
2022-11-18T09:51:42.841Z,8.02
2022-11-18T09:55:13.432Z,6.68
2022-11-18T09:58:37.011Z,6.18
2022-11-18T10:02:05.360Z,6.38
2022-11-18T10:05:30.608Z,7.38
2022-11-18T10:09:09.615Z,6.47
2022-11-18T10:12:42.760Z,4.75
2022-11-18T10:16:22.797Z,5.13
2022-11-18T10:19:53.039Z,8.20
2022-11-18T10:23:21.708Z,10.70
2022-11-18T10:26:45.051Z,3.72
2022-11-18T10:30:14.278Z,2.83
2022-11-18T10:33:38.677Z,7.85
2022-11-18T10:37:03.895Z,8.65
2022-11-18T10:40:29.138Z,2.60
2022-11-18T10:43:55.002Z,3.25
2022-11-18T10:47:31.147Z,3.88
2022-11-18T10:50:56.068Z,5.25
2022-11-18T10:54:21.235Z,5.13
2022-11-18T10:57:44.486Z,3.22
2022-11-18T11:01:09.318Z,5.85
2022-11-18T11:04:33.769Z,7.50
2022-11-18T11:08:29.453Z,5.18
2022-11-18T11:11:58.590Z,3.30
2022-11-18T11:15:27.698Z,4.80
2022-11-18T11:18:56.813Z,2.38
2022-11-18T11:22:21.142Z,5.10
2022-11-18T11:29:48.881Z,3.47
2022-11-18T11:33:37.555Z,3.92
2022-11-18T11:37:07.338Z,2.25
2022-11-18T11:40:38.010Z,3.53
2022-11-18T11:44:18.419Z,2.97
2022-11-18T11:47:50.663Z,4.63
2022-11-18T11:51:22.735Z,6.00
2022-11-18T11:54:53.552Z,4.00
2022-11-18T11:58:31.990Z,7.03
2022-11-18T12:02:08.692Z,6.07
2022-11-18T12:05:36.200Z,5.47
2022-11-18T12:09:06.715Z,5.00
2022-11-18T12:12:38.180Z,1.70
2022-11-18T12:16:21.257Z,5.07
2022-11-18T12:19:44.224Z,1.48
2022-11-18T12:23:20.907Z,2.53
2022-11-18T12:26:44.303Z,2.83
2022-11-18T12:30:19.685Z,3.75
2022-11-18T12:33:46.604Z,3.90
2022-11-18T12:37:46.341Z,3.25
2022-11-18T12:42:11.101Z,4.93
2022-11-18T12:45:58.617Z,3.63
2022-11-18T12:50:01.077Z,2.95
2022-11-18T12:53:36.593Z,5.07
2022-11-18T12:57:01.804Z,5.60
2022-11-18T13:00:53.051Z,2.55
2022-11-18T13:04:19.889Z,6.30
2022-11-18T13:08:04.332Z,4.00
2022-11-18T13:11:46.156Z,5.47
2022-11-18T13:15:30.312Z,3.65
2022-11-18T13:18:54.937Z,4.85
2022-11-18T13:22:36.799Z,6.55
2022-11-18T13:26:06.121Z,4.47
2022-11-18T13:29:43.011Z,3.28
2022-11-18T13:33:10.963Z,7.25
2022-11-18T13:36:34.038Z,14.15
2022-11-18T13:39:57.384Z,12.70
2022-11-18T13:43:27.031Z,27.90
2022-11-18T13:46:55.544Z,16.52
2022-11-18T13:50:23.376Z,17.17
2022-11-18T13:53:46.553Z,16.95
2022-11-18T13:57:19.659Z,15.23
2022-11-18T14:00:42.707Z,17.75
2022-11-18T14:04:09.582Z,18.77
2022-11-18T14:07:35.583Z,13.80
2022-11-18T14:10:59.822Z,23.17
2022-11-18T14:14:30.523Z,14.63
2022-11-18T14:17:56.949Z,15.52
2022-11-18T14:21:29.421Z,9.85
2022-11-18T14:24:57.609Z,17.75
2022-11-18T14:28:23.984Z,11.25
2022-11-18T14:31:46.971Z,14.82
2022-11-18T14:35:12.264Z,13.25
2022-11-18T14:38:57.972Z,7.55
2022-11-18T14:42:27.775Z,15.88
2022-11-18T14:45:51.205Z,10.23
2022-11-18T14:49:16.867Z,11.68
2022-11-18T14:52:40.263Z,14.30
2022-11-18T14:56:04.683Z,9.50
2022-11-18T14:59:27.709Z,9.00
2022-11-18T15:02:50.679Z,9.77
2022-11-18T15:06:18.627Z,10.88
2022-11-18T15:09:41.817Z,9.00
2022-11-18T15:13:06.089Z,14.65
2022-11-18T15:16:31.791Z,10.68
2022-11-18T15:19:54.717Z,13.05
2022-11-18T15:23:17.633Z,9.73
2022-11-18T15:26:43.052Z,10.75
2022-11-18T15:30:09.063Z,10.05
2022-11-18T15:33:32.004Z,7.18
2022-11-18T15:36:54.914Z,11.50
2022-11-18T15:40:18.519Z,6.40
2022-11-18T15:43:41.679Z,8.27
2022-11-18T15:47:06.234Z,8.27
2022-11-18T15:50:29.194Z,8.75
2022-11-18T15:53:52.123Z,9.48
2022-11-18T15:57:15.033Z,10.10
2022-11-18T16:00:38.124Z,5.75
2022-11-18T16:04:02.892Z,13.15
2022-11-18T16:07:25.841Z,11.50
2022-11-18T16:11:06.433Z,10.50
2022-11-18T16:14:29.750Z,14.82
2022-11-18T16:17:52.757Z,6.97
2022-11-18T16:21:17.073Z,11.02
2022-11-18T16:24:44.181Z,11.77
2022-11-18T16:28:10.071Z,5.85
2022-11-18T16:31:43.483Z,6.20
2022-11-18T16:35:06.995Z,10.15
2022-11-18T16:38:31.635Z,10.45
2022-11-18T16:42:00.673Z,11.57
2022-11-18T16:45:23.804Z,11.93
2022-11-18T16:48:47.100Z,5.72
2022-11-18T16:52:10.210Z,10.75
2022-11-18T16:55:34.472Z,7.43
2022-11-18T16:58:59.252Z,9.13
2022-11-18T17:02:23.620Z,8.90
2022-11-18T17:05:46.526Z,5.38
2022-11-18T17:09:14.086Z,8.05
2022-11-18T17:12:38.388Z,6.28
2022-11-18T17:16:05.153Z,9.30
2022-11-18T17:19:28.095Z,9.75
2022-11-18T17:22:53.380Z,12.10
2022-11-18T17:26:19.274Z,7.32
2022-11-18T17:29:43.542Z,11.73
2022-11-18T17:33:07.236Z,12.63
2022-11-18T17:36:30.424Z,13.55
2022-11-18T17:39:53.591Z,6.13
2022-11-18T17:43:16.993Z,8.23
2022-11-18T17:46:41.723Z,9.82
2022-11-18T17:50:05.525Z,13.43
2022-11-18T17:53:28.494Z,11.77
2022-11-18T17:56:52.845Z,12.02
2022-11-18T18:00:16.327Z,11.20
2022-11-18T18:03:40.926Z,11.70
2022-11-18T18:07:03.886Z,13.93
2022-11-18T18:10:27.606Z,13.18
2022-11-18T18:14:08.348Z,22.55
2022-11-18T18:17:31.230Z,14.90
2022-11-18T18:20:55.485Z,14.27
2022-11-18T18:24:20.733Z,18.13
2022-11-18T18:27:43.924Z,11.40
2022-11-18T18:31:08.896Z,10.77
2022-11-18T18:34:31.830Z,11.07
2022-11-18T18:37:56.154Z,18.38
2022-11-18T18:41:21.550Z,9.90
2022-11-18T18:45:01.904Z,8.63
2022-11-18T18:48:24.822Z,9.38
2022-11-18T18:51:50.029Z,15.93
2022-11-18T18:55:14.380Z,11.20
2022-11-18T18:58:37.432Z,8.30
2022-11-18T19:02:00.477Z,10.20
2022-11-18T19:05:45.881Z,8.13
2022-11-18T19:09:08.898Z,9.93
2022-11-18T19:12:51.456Z,9.02
2022-11-18T19:16:14.374Z,9.98
2022-11-18T19:19:54.553Z,9.27
2022-11-18T19:23:18.255Z,7.07
2022-11-18T19:26:41.248Z,11.10
2022-11-18T19:30:06.204Z,14.38
2022-11-18T19:33:29.179Z,11.07
2022-11-18T19:36:52.123Z,9.45
2022-11-18T19:40:16.524Z,7.00
2022-11-18T19:43:39.683Z,13.80
2022-11-18T19:47:04.071Z,15.18
2022-11-18T19:50:27.235Z,16.05
2022-11-18T19:53:51.372Z,12.77
2022-11-18T19:57:15.102Z,18.73
2022-11-18T20:00:38.021Z,13.60
2022-11-18T20:04:03.090Z,11.80
2022-11-18T20:07:26.199Z,16.73
2022-11-18T20:10:50.247Z,17.63
2022-11-18T20:14:13.805Z,9.40
2022-11-18T20:17:36.673Z,5.13
2022-11-18T20:21:07.663Z,10.95
2022-11-18T20:24:30.592Z,11.85
2022-11-18T20:27:53.901Z,11.18
2022-11-18T20:31:18.649Z,9.63
2022-11-18T20:34:42.137Z,15.05
2022-11-18T20:38:06.370Z,12.52
2022-11-18T20:41:30.358Z,11.52
2022-11-18T20:44:53.366Z,16.67
2022-11-18T20:48:16.319Z,7.97
2022-11-18T20:51:39.239Z,12.95
2022-11-18T20:55:05.955Z,9.88
2022-11-18T20:58:29.060Z,9.63
2022-11-18T21:01:51.973Z,8.40
2022-11-18T21:05:14.915Z,9.05
2022-11-18T21:08:38.132Z,14.02
2022-11-18T21:12:02.590Z,8.32
2022-11-18T21:15:25.517Z,15.75
2022-11-18T21:18:48.475Z,19.35
2022-11-18T21:22:11.394Z,20.02
2022-11-18T21:25:34.888Z,18.08
2022-11-18T21:29:01.595Z,23.35
2022-11-18T21:32:24.602Z,23.15
2022-11-18T21:35:47.497Z,24.02
2022-11-18T21:39:10.904Z,17.88
2022-11-18T21:42:33.808Z,22.58
2022-11-18T21:46:01.808Z,15.27
2022-11-18T21:49:24.984Z,30.15
2022-11-18T21:52:47.960Z,22.42
2022-11-18T21:56:12.811Z,20.00
2022-11-18T21:59:35.989Z,27.40
2022-11-18T22:03:00.462Z,29.23
2022-11-18T22:06:25.173Z,31.10
2022-11-18T22:09:48.385Z,20.70
2022-11-18T22:13:11.345Z,21.13
2022-11-18T22:16:34.552Z,18.48
2022-11-18T22:19:59.151Z,18.52
2022-11-18T22:23:22.069Z,10.50
2022-11-18T22:26:45.160Z,12.43
2022-11-18T22:30:09.675Z,20.35
2022-11-18T22:33:32.983Z,20.65
2022-11-18T22:36:57.577Z,22.65
2022-11-18T22:40:20.874Z,23.83
2022-11-18T22:43:43.979Z,20.45
2022-11-18T22:47:07.111Z,21.52
2022-11-18T22:50:30.010Z,18.50
2022-11-18T22:54:15.952Z,18.00
2022-11-18T22:57:38.171Z,20.63
2022-11-18T23:01:02.099Z,22.25
2022-11-18T23:04:27.007Z,17.52
2022-11-18T23:07:49.957Z,16.08
2022-11-18T23:11:37.079Z,18.55
2022-11-18T23:15:00.343Z,21.02
2022-11-18T23:18:23.250Z,19.52
2022-11-18T23:21:48.408Z,21.13
2022-11-18T23:25:11.408Z,13.98
2022-11-18T23:28:36.105Z,12.95
2022-11-18T23:31:59.003Z,19.65
2022-11-18T23:35:21.961Z,12.43
2022-11-18T23:38:45.706Z,18.88
2022-11-18T23:42:08.646Z,17.25
2022-11-18T23:45:33.062Z,18.60
2022-11-18T23:48:56.168Z,13.60
2022-11-18T23:52:19.052Z,15.68
2022-11-18T23:55:42.352Z,15.50
2022-11-18T23:59:05.311Z,21.05
